sensor_id;sensor_type;location;lat;lon;timestamp;temperature;humidity
8676;DHT22;4375;52.486;13.424;2022-10-22T00:00:53;13.90;99.90
8676;DHT22;4375;52.486;13.424;2022-10-22T00:03:20;13.90;99.90
8676;DHT22;4375;52.486;13.424;2022-10-22T00:05:46;13.90;99.90
8676;DHT22;4375;52.486;13.424;2022-10-22T00:08:12;13.90;99.90
8676;DHT22;4375;52.486;13.424;2022-10-22T00:10:39;13.90;99.90
8676;DHT22;4375;52.486;13.424;2022-10-22T00:13:04;13.90;99.90
8676;DHT22;4375;52.486;13.424;2022-10-22T00:15:30;14.00;99.90
8676;DHT22;4375;52.486;13.424;2022-10-22T00:17:56;14.00;99.90
8676;DHT22;4375;52.486;13.424;2022-10-22T00:20:21;14.00;99.90
8676;DHT22;4375;52.486;13.424;2022-10-22T00:22:47;14.00;99.90
8676;DHT22;4375;52.486;13.424;2022-10-22T00:25:13;14.00;99.90
8676;DHT22;4375;52.486;13.424;2022-10-22T00:27:39;14.00;99.90
8676;DHT22;4375;52.486;13.424;2022-10-22T00:30:05;14.00;99.90
8676;DHT22;4375;52.486;13.424;2022-10-22T00:32:31;14.00;99.90
8676;DHT22;4375;52.486;13.424;2022-10-22T00:34:57;14.10;99.90
8676;DHT22;4375;52.486;13.424;2022-10-22T00:37:23;14.10;99.90
8676;DHT22;4375;52.486;13.424;2022-10-22T00:39:48;14.10;99.90
8676;DHT22;4375;52.486;13.424;2022-10-22T00:42:18;14.00;99.90
8676;DHT22;4375;52.486;13.424;2022-10-22T00:47:45;14.10;99.90
8676;DHT22;4375;52.486;13.424;2022-10-22T00:50:18;14.10;99.90
8676;DHT22;4375;52.486;13.424;2022-10-22T00:52:46;14.00;99.90
8676;DHT22;4375;52.486;13.424;2022-10-22T00:55:13;14.00;99.90
8676;DHT22;4375;52.486;13.424;2022-10-22T00:57:39;14.00;99.90
8676;DHT22;4375;52.486;13.424;2022-10-22T01:00:06;14.00;99.90
8676;DHT22;4375;52.486;13.424;2022-10-22T01:02:32;14.00;99.90
8676;DHT22;4375;52.486;13.424;2022-10-22T01:04:57;14.00;99.90
8676;DHT22;4375;52.486;13.424;2022-10-22T01:07:23;14.00;99.90
8676;DHT22;4375;52.486;13.424;2022-10-22T01:15:34;14.00;99.90
8676;DHT22;4375;52.486;13.424;2022-10-22T01:18:10;14.00;99.90
8676;DHT22;4375;52.486;13.424;2022-10-22T01:26:53;14.00;99.90
8676;DHT22;4375;52.486;13.424;2022-10-22T01:29:29;14.00;99.90
8676;DHT22;4375;52.486;13.424;2022-10-22T01:32:05;14.00;99.90
8676;DHT22;4375;52.486;13.424;2022-10-22T01:34:32;13.90;99.90
8676;DHT22;4375;52.486;13.424;2022-10-22T01:36:59;13.90;99.90
8676;DHT22;4375;52.486;13.424;2022-10-22T01:39:26;13.90;99.90
8676;DHT22;4375;52.486;13.424;2022-10-22T01:41:57;13.90;99.90
8676;DHT22;4375;52.486;13.424;2022-10-22T01:44:32;13.90;99.90
8676;DHT22;4375;52.486;13.424;2022-10-22T02:00:11;13.90;99.90
8676;DHT22;4375;52.486;13.424;2022-10-22T02:03:08;13.80;99.90
8676;DHT22;4375;52.486;13.424;2022-10-22T02:05:45;13.80;99.90
8676;DHT22;4375;52.486;13.424;2022-10-22T02:08:20;13.80;99.90
8676;DHT22;4375;52.486;13.424;2022-10-22T02:10:49;13.80;99.90
8676;DHT22;4375;52.486;13.424;2022-10-22T02:13:19;13.80;99.90
8676;DHT22;4375;52.486;13.424;2022-10-22T02:15:48;13.80;99.90
8676;DHT22;4375;52.486;13.424;2022-10-22T02:18:15;13.80;99.90
8676;DHT22;4375;52.486;13.424;2022-10-22T02:20:42;13.80;99.90
8676;DHT22;4375;52.486;13.424;2022-10-22T02:23:09;13.80;99.90
8676;DHT22;4375;52.486;13.424;2022-10-22T02:25:38;13.80;99.90
8676;DHT22;4375;52.486;13.424;2022-10-22T02:28:18;13.80;99.90
8676;DHT22;4375;52.486;13.424;2022-10-22T02:30:52;13.80;99.90
8676;DHT22;4375;52.486;13.424;2022-10-22T02:33:22;13.80;99.90
8676;DHT22;4375;52.486;13.424;2022-10-22T02:35:51;13.80;99.90
8676;DHT22;4375;52.486;13.424;2022-10-22T02:38:18;13.70;99.90
8676;DHT22;4375;52.486;13.424;2022-10-22T02:40:44;13.80;99.90
8676;DHT22;4375;52.486;13.424;2022-10-22T02:43:09;13.70;99.90
8676;DHT22;4375;52.486;13.424;2022-10-22T02:45:36;13.70;99.90
8676;DHT22;4375;52.486;13.424;2022-10-22T02:48:02;13.70;99.90
8676;DHT22;4375;52.486;13.424;2022-10-22T02:50:27;13.70;99.90
8676;DHT22;4375;52.486;13.424;2022-10-22T02:52:53;13.70;99.90
8676;DHT22;4375;52.486;13.424;2022-10-22T02:55:19;13.60;99.90
8676;DHT22;4375;52.486;13.424;2022-10-22T02:57:44;13.60;99.90
8676;DHT22;4375;52.486;13.424;2022-10-22T03:00:10;13.60;99.90
8676;DHT22;4375;52.486;13.424;2022-10-22T03:02:36;13.60;99.90
8676;DHT22;4375;52.486;13.424;2022-10-22T03:05:03;13.60;99.90
8676;DHT22;4375;52.486;13.424;2022-10-22T03:07:28;13.60;99.90
8676;DHT22;4375;52.486;13.424;2022-10-22T03:09:54;13.60;99.90
8676;DHT22;4375;52.486;13.424;2022-10-22T03:12:20;13.60;99.90
8676;DHT22;4375;52.486;13.424;2022-10-22T03:14:45;13.60;99.90
8676;DHT22;4375;52.486;13.424;2022-10-22T03:17:11;13.60;99.90
8676;DHT22;4375;52.486;13.424;2022-10-22T03:19:37;13.60;99.90
8676;DHT22;4375;52.486;13.424;2022-10-22T03:22:06;13.60;99.90
8676;DHT22;4375;52.486;13.424;2022-10-22T03:24:37;13.70;99.90
8676;DHT22;4375;52.486;13.424;2022-10-22T03:27:04;13.70;99.90
8676;DHT22;4375;52.486;13.424;2022-10-22T03:29:30;13.60;99.90
8676;DHT22;4375;52.486;13.424;2022-10-22T03:31:57;13.60;99.90
8676;DHT22;4375;52.486;13.424;2022-10-22T03:34:26;13.60;99.90
8676;DHT22;4375;52.486;13.424;2022-10-22T03:36:52;13.60;99.90
8676;DHT22;4375;52.486;13.424;2022-10-22T03:39:19;13.60;99.90
8676;DHT22;4375;52.486;13.424;2022-10-22T03:41:47;13.60;99.90
8676;DHT22;4375;52.486;13.424;2022-10-22T03:44:14;13.60;99.90
8676;DHT22;4375;52.486;13.424;2022-10-22T03:46:41;13.60;99.90
8676;DHT22;4375;52.486;13.424;2022-10-22T03:49:06;13.60;99.90
8676;DHT22;4375;52.486;13.424;2022-10-22T03:51:32;13.60;99.90
8676;DHT22;4375;52.486;13.424;2022-10-22T03:53:58;13.70;99.90
8676;DHT22;4375;52.486;13.424;2022-10-22T03:56:25;13.70;99.90
8676;DHT22;4375;52.486;13.424;2022-10-22T03:58:50;13.70;99.90
8676;DHT22;4375;52.486;13.424;2022-10-22T04:01:16;13.70;99.90
8676;DHT22;4375;52.486;13.424;2022-10-22T04:03:41;13.60;99.90
8676;DHT22;4375;52.486;13.424;2022-10-22T04:06:10;13.60;99.90
8676;DHT22;4375;52.486;13.424;2022-10-22T04:08:37;13.60;99.90
8676;DHT22;4375;52.486;13.424;2022-10-22T04:11:04;13.60;99.90
8676;DHT22;4375;52.486;13.424;2022-10-22T04:13:30;13.60;99.90
8676;DHT22;4375;52.486;13.424;2022-10-22T04:16:05;13.60;99.90
8676;DHT22;4375;52.486;13.424;2022-10-22T04:18:30;13.60;99.90
8676;DHT22;4375;52.486;13.424;2022-10-22T04:20:56;13.60;99.90
8676;DHT22;4375;52.486;13.424;2022-10-22T04:23:22;13.60;99.90
8676;DHT22;4375;52.486;13.424;2022-10-22T04:25:49;13.60;99.90
8676;DHT22;4375;52.486;13.424;2022-10-22T04:28:21;13.60;99.90
8676;DHT22;4375;52.486;13.424;2022-10-22T04:30:47;13.60;99.90
8676;DHT22;4375;52.486;13.424;2022-10-22T04:33:12;13.50;99.90
8676;DHT22;4375;52.486;13.424;2022-10-22T04:35:38;13.50;99.90
8676;DHT22;4375;52.486;13.424;2022-10-22T04:38:04;13.50;99.90
8676;DHT22;4375;52.486;13.424;2022-10-22T04:40:29;13.50;99.90
8676;DHT22;4375;52.486;13.424;2022-10-22T04:42:55;13.50;99.90
8676;DHT22;4375;52.486;13.424;2022-10-22T04:45:21;13.50;99.90
8676;DHT22;4375;52.486;13.424;2022-10-22T04:47:47;13.50;99.90
8676;DHT22;4375;52.486;13.424;2022-10-22T04:50:12;13.50;99.90
8676;DHT22;4375;52.486;13.424;2022-10-22T04:52:38;13.50;99.90
8676;DHT22;4375;52.486;13.424;2022-10-22T04:55:04;13.50;99.90
8676;DHT22;4375;52.486;13.424;2022-10-22T04:57:30;13.50;99.90
8676;DHT22;4375;52.486;13.424;2022-10-22T04:59:56;13.50;99.90
8676;DHT22;4375;52.486;13.424;2022-10-22T05:02:22;13.40;99.90
8676;DHT22;4375;52.486;13.424;2022-10-22T05:04:48;13.40;99.90
8676;DHT22;4375;52.486;13.424;2022-10-22T05:07:13;13.40;99.90
8676;DHT22;4375;52.486;13.424;2022-10-22T05:09:39;13.40;99.90
8676;DHT22;4375;52.486;13.424;2022-10-22T05:12:05;13.40;99.90
8676;DHT22;4375;52.486;13.424;2022-10-22T05:14:31;13.40;99.90
8676;DHT22;4375;52.486;13.424;2022-10-22T05:16:57;13.40;99.90
8676;DHT22;4375;52.486;13.424;2022-10-22T05:19:25;13.40;99.90
8676;DHT22;4375;52.486;13.424;2022-10-22T05:21:52;13.30;99.90
8676;DHT22;4375;52.486;13.424;2022-10-22T05:24:18;13.30;99.90
8676;DHT22;4375;52.486;13.424;2022-10-22T05:26:44;13.30;99.90
8676;DHT22;4375;52.486;13.424;2022-10-22T05:29:09;13.30;99.90
8676;DHT22;4375;52.486;13.424;2022-10-22T05:31:35;13.20;99.90
8676;DHT22;4375;52.486;13.424;2022-10-22T05:34:01;13.20;99.90
8676;DHT22;4375;52.486;13.424;2022-10-22T05:36:26;13.20;99.90
8676;DHT22;4375;52.486;13.424;2022-10-22T05:38:52;13.20;99.90
8676;DHT22;4375;52.486;13.424;2022-10-22T05:41:21;13.20;99.90
8676;DHT22;4375;52.486;13.424;2022-10-22T05:43:47;13.20;99.90
8676;DHT22;4375;52.486;13.424;2022-10-22T05:46:18;13.20;99.90
8676;DHT22;4375;52.486;13.424;2022-10-22T05:48:48;13.20;99.90
8676;DHT22;4375;52.486;13.424;2022-10-22T05:51:14;13.20;99.90
8676;DHT22;4375;52.486;13.424;2022-10-22T05:53:41;13.30;99.90
8676;DHT22;4375;52.486;13.424;2022-10-22T05:56:11;13.30;99.90
8676;DHT22;4375;52.486;13.424;2022-10-22T05:58:37;13.20;99.90
8676;DHT22;4375;52.486;13.424;2022-10-22T06:01:10;13.20;99.90
8676;DHT22;4375;52.486;13.424;2022-10-22T06:03:36;13.20;99.90
8676;DHT22;4375;52.486;13.424;2022-10-22T06:08:47;13.20;99.90
8676;DHT22;4375;52.486;13.424;2022-10-22T06:11:14;13.20;99.90
8676;DHT22;4375;52.486;13.424;2022-10-22T06:13:39;13.20;99.90
8676;DHT22;4375;52.486;13.424;2022-10-22T06:16:05;13.20;99.90
8676;DHT22;4375;52.486;13.424;2022-10-22T06:18:31;13.20;99.90
8676;DHT22;4375;52.486;13.424;2022-10-22T06:21:11;13.20;99.90
8676;DHT22;4375;52.486;13.424;2022-10-22T06:23:38;13.20;99.90
8676;DHT22;4375;52.486;13.424;2022-10-22T06:26:04;13.20;99.90
8676;DHT22;4375;52.486;13.424;2022-10-22T06:28:34;13.10;99.90
8676;DHT22;4375;52.486;13.424;2022-10-22T06:31:10;13.10;99.90
8676;DHT22;4375;52.486;13.424;2022-10-22T06:33:35;13.10;99.90
8676;DHT22;4375;52.486;13.424;2022-10-22T06:36:18;13.20;99.90
8676;DHT22;4375;52.486;13.424;2022-10-22T06:38:44;13.20;99.90
8676;DHT22;4375;52.486;13.424;2022-10-22T06:41:12;13.30;99.90
8676;DHT22;4375;52.486;13.424;2022-10-22T06:43:38;13.30;99.90
8676;DHT22;4375;52.486;13.424;2022-10-22T06:46:07;13.40;99.90
8676;DHT22;4375;52.486;13.424;2022-10-22T06:48:34;13.40;99.90
8676;DHT22;4375;52.486;13.424;2022-10-22T06:51:03;13.30;99.90
8676;DHT22;4375;52.486;13.424;2022-10-22T06:53:29;13.30;99.90
8676;DHT22;4375;52.486;13.424;2022-10-22T06:55:55;13.40;99.90
8676;DHT22;4375;52.486;13.424;2022-10-22T06:58:21;13.40;99.90
8676;DHT22;4375;52.486;13.424;2022-10-22T07:00:46;13.50;99.90
8676;DHT22;4375;52.486;13.424;2022-10-22T07:03:13;13.40;99.90
8676;DHT22;4375;52.486;13.424;2022-10-22T07:05:39;13.50;99.90
8676;DHT22;4375;52.486;13.424;2022-10-22T07:08:05;13.50;99.90
8676;DHT22;4375;52.486;13.424;2022-10-22T07:10:31;13.50;99.90
8676;DHT22;4375;52.486;13.424;2022-10-22T07:12:57;13.60;99.90
8676;DHT22;4375;52.486;13.424;2022-10-22T07:15:23;13.60;99.90
8676;DHT22;4375;52.486;13.424;2022-10-22T07:17:48;13.50;99.90
8676;DHT22;4375;52.486;13.424;2022-10-22T07:20:16;13.60;99.90
8676;DHT22;4375;52.486;13.424;2022-10-22T07:22:44;13.60;99.90
8676;DHT22;4375;52.486;13.424;2022-10-22T07:25:10;13.70;99.90
8676;DHT22;4375;52.486;13.424;2022-10-22T07:27:35;13.70;99.90
8676;DHT22;4375;52.486;13.424;2022-10-22T07:30:01;13.80;99.90
8676;DHT22;4375;52.486;13.424;2022-10-22T07:32:27;13.90;99.90
8676;DHT22;4375;52.486;13.424;2022-10-22T07:34:53;14.00;99.90
8676;DHT22;4375;52.486;13.424;2022-10-22T07:37:19;14.00;99.90
8676;DHT22;4375;52.486;13.424;2022-10-22T07:39:47;14.00;99.90
8676;DHT22;4375;52.486;13.424;2022-10-22T07:42:12;14.20;99.90
8676;DHT22;4375;52.486;13.424;2022-10-22T07:44:58;14.30;99.90
8676;DHT22;4375;52.486;13.424;2022-10-22T07:47:24;14.30;99.90
8676;DHT22;4375;52.486;13.424;2022-10-22T07:49:50;14.50;99.90
8676;DHT22;4375;52.486;13.424;2022-10-22T07:52:15;14.40;99.90
8676;DHT22;4375;52.486;13.424;2022-10-22T07:54:41;14.50;99.90
8676;DHT22;4375;52.486;13.424;2022-10-22T07:57:06;14.60;99.90
8676;DHT22;4375;52.486;13.424;2022-10-22T07:59:32;14.50;99.90
8676;DHT22;4375;52.486;13.424;2022-10-22T08:01:58;14.40;99.90
8676;DHT22;4375;52.486;13.424;2022-10-22T08:04:23;14.50;99.90
8676;DHT22;4375;52.486;13.424;2022-10-22T08:06:49;14.50;99.90
8676;DHT22;4375;52.486;13.424;2022-10-22T08:09:15;14.60;99.90
8676;DHT22;4375;52.486;13.424;2022-10-22T08:11:40;14.50;99.90
8676;DHT22;4375;52.486;13.424;2022-10-22T08:14:06;14.40;99.90
8676;DHT22;4375;52.486;13.424;2022-10-22T08:16:32;14.40;99.90
8676;DHT22;4375;52.486;13.424;2022-10-22T08:18:57;14.40;99.90
8676;DHT22;4375;52.486;13.424;2022-10-22T08:21:23;14.50;99.90
8676;DHT22;4375;52.486;13.424;2022-10-22T08:23:49;14.40;99.90
8676;DHT22;4375;52.486;13.424;2022-10-22T08:26:14;14.50;99.90
8676;DHT22;4375;52.486;13.424;2022-10-22T08:28:40;14.60;99.90
8676;DHT22;4375;52.486;13.424;2022-10-22T08:31:07;14.70;99.90
8676;DHT22;4375;52.486;13.424;2022-10-22T08:33:33;14.80;99.90
8676;DHT22;4375;52.486;13.424;2022-10-22T08:36:01;14.80;99.90
8676;DHT22;4375;52.486;13.424;2022-10-22T08:38:26;14.90;99.90
8676;DHT22;4375;52.486;13.424;2022-10-22T08:41:00;14.80;99.90
8676;DHT22;4375;52.486;13.424;2022-10-22T08:46:14;14.80;99.90
8676;DHT22;4375;52.486;13.424;2022-10-22T08:51:16;14.80;99.90
8676;DHT22;4375;52.486;13.424;2022-10-22T08:53:59;14.90;99.90
8676;DHT22;4375;52.486;13.424;2022-10-22T08:56:27;14.90;99.90
8676;DHT22;4375;52.486;13.424;2022-10-22T08:59:18;15.00;99.90
8676;DHT22;4375;52.486;13.424;2022-10-22T09:01:50;15.00;99.90
8676;DHT22;4375;52.486;13.424;2022-10-22T09:04:26;15.20;99.90
8676;DHT22;4375;52.486;13.424;2022-10-22T09:06:54;15.20;99.90
8676;DHT22;4375;52.486;13.424;2022-10-22T09:09:26;15.20;99.90
8676;DHT22;4375;52.486;13.424;2022-10-22T09:11:56;15.30;99.90
8676;DHT22;4375;52.486;13.424;2022-10-22T09:14:23;15.40;99.90
8676;DHT22;4375;52.486;13.424;2022-10-22T09:17:17;15.50;99.90
8676;DHT22;4375;52.486;13.424;2022-10-22T09:27:50;15.60;99.90
8676;DHT22;4375;52.486;13.424;2022-10-22T09:30:21;15.60;99.90
8676;DHT22;4375;52.486;13.424;2022-10-22T09:35:49;15.80;99.90
8676;DHT22;4375;52.486;13.424;2022-10-22T09:38:19;15.80;99.90
8676;DHT22;4375;52.486;13.424;2022-10-22T09:40:48;15.90;99.90
8676;DHT22;4375;52.486;13.424;2022-10-22T09:43:14;15.80;99.90
8676;DHT22;4375;52.486;13.424;2022-10-22T09:45:41;15.90;99.90
8676;DHT22;4375;52.486;13.424;2022-10-22T09:48:34;15.90;99.90
8676;DHT22;4375;52.486;13.424;2022-10-22T09:51:21;16.00;99.90
8676;DHT22;4375;52.486;13.424;2022-10-22T09:53:58;16.00;99.90
8676;DHT22;4375;52.486;13.424;2022-10-22T09:56:33;15.90;99.90
8676;DHT22;4375;52.486;13.424;2022-10-22T09:59:02;16.00;99.90
8676;DHT22;4375;52.486;13.424;2022-10-22T10:01:32;16.10;99.90
8676;DHT22;4375;52.486;13.424;2022-10-22T10:04:08;16.20;99.90
8676;DHT22;4375;52.486;13.424;2022-10-22T10:06:35;16.40;99.90
8676;DHT22;4375;52.486;13.424;2022-10-22T10:09:16;16.50;99.90
8676;DHT22;4375;52.486;13.424;2022-10-22T10:11:47;16.60;99.90
8676;DHT22;4375;52.486;13.424;2022-10-22T10:22:54;16.30;99.90
8676;DHT22;4375;52.486;13.424;2022-10-22T10:25:52;16.30;99.90
8676;DHT22;4375;52.486;13.424;2022-10-22T10:45:56;16.40;99.90
8676;DHT22;4375;52.486;13.424;2022-10-22T10:56:36;16.60;99.90
8676;DHT22;4375;52.486;13.424;2022-10-22T11:07:50;16.80;99.90
8676;DHT22;4375;52.486;13.424;2022-10-22T11:18:36;17.70;99.90
8676;DHT22;4375;52.486;13.424;2022-10-22T11:21:13;17.70;99.90
8676;DHT22;4375;52.486;13.424;2022-10-22T11:23:46;17.90;99.90
8676;DHT22;4375;52.486;13.424;2022-10-22T11:26:29;17.90;99.90
8676;DHT22;4375;52.486;13.424;2022-10-22T11:28:58;17.70;99.90
8676;DHT22;4375;52.486;13.424;2022-10-22T11:31:25;17.50;99.90
8676;DHT22;4375;52.486;13.424;2022-10-22T11:34:24;17.50;99.90
8676;DHT22;4375;52.486;13.424;2022-10-22T11:36:51;17.50;99.90
8676;DHT22;4375;52.486;13.424;2022-10-22T11:39:42;17.50;99.90
8676;DHT22;4375;52.486;13.424;2022-10-22T11:42:20;17.40;99.90
8676;DHT22;4375;52.486;13.424;2022-10-22T11:45:26;17.40;99.90
8676;DHT22;4375;52.486;13.424;2022-10-22T11:50:27;17.40;99.90
8676;DHT22;4375;52.486;13.424;2022-10-22T11:58:44;17.20;99.90
8676;DHT22;4375;52.486;13.424;2022-10-22T12:03:48;17.30;99.90
8676;DHT22;4375;52.486;13.424;2022-10-22T12:14:24;17.60;99.90
8676;DHT22;4375;52.486;13.424;2022-10-22T12:19:45;17.90;99.90
8676;DHT22;4375;52.486;13.424;2022-10-22T12:22:14;18.00;99.90
8676;DHT22;4375;52.486;13.424;2022-10-22T12:24:44;18.00;99.90
8676;DHT22;4375;52.486;13.424;2022-10-22T12:27:34;18.00;99.90
8676;DHT22;4375;52.486;13.424;2022-10-22T12:30:02;18.00;99.90
8676;DHT22;4375;52.486;13.424;2022-10-22T12:32:36;18.00;99.90
8676;DHT22;4375;52.486;13.424;2022-10-22T12:35:08;18.00;99.90
8676;DHT22;4375;52.486;13.424;2022-10-22T12:37:36;18.10;99.90
8676;DHT22;4375;52.486;13.424;2022-10-22T12:40:16;18.20;99.90
8676;DHT22;4375;52.486;13.424;2022-10-22T12:42:59;18.20;99.90
8676;DHT22;4375;52.486;13.424;2022-10-22T12:45:30;18.20;99.90
8676;DHT22;4375;52.486;13.424;2022-10-22T12:48:02;18.10;99.90
8676;DHT22;4375;52.486;13.424;2022-10-22T12:50:34;18.10;99.90
8676;DHT22;4375;52.486;13.424;2022-10-22T12:53:05;18.10;99.90
8676;DHT22;4375;52.486;13.424;2022-10-22T12:55:32;18.00;99.90
8676;DHT22;4375;52.486;13.424;2022-10-22T12:57:58;18.00;99.90
8676;DHT22;4375;52.486;13.424;2022-10-22T13:00:32;17.90;99.90
8676;DHT22;4375;52.486;13.424;2022-10-22T13:03:01;17.90;99.90
8676;DHT22;4375;52.486;13.424;2022-10-22T13:05:33;17.80;99.90
8676;DHT22;4375;52.486;13.424;2022-10-22T13:08:16;17.80;99.90
8676;DHT22;4375;52.486;13.424;2022-10-22T13:10:51;17.80;99.90
8676;DHT22;4375;52.486;13.424;2022-10-22T13:13:31;17.70;99.90
8676;DHT22;4375;52.486;13.424;2022-10-22T13:16:16;17.90;99.90
8676;DHT22;4375;52.486;13.424;2022-10-22T13:18:42;18.00;99.90
8676;DHT22;4375;52.486;13.424;2022-10-22T13:21:40;18.00;99.90
8676;DHT22;4375;52.486;13.424;2022-10-22T13:24:20;17.90;99.90
8676;DHT22;4375;52.486;13.424;2022-10-22T13:26:52;17.80;99.90
8676;DHT22;4375;52.486;13.424;2022-10-22T13:29:20;17.70;99.90
8676;DHT22;4375;52.486;13.424;2022-10-22T13:31:50;17.70;99.90
8676;DHT22;4375;52.486;13.424;2022-10-22T13:34:22;17.60;99.90
8676;DHT22;4375;52.486;13.424;2022-10-22T13:36:48;17.60;99.90
8676;DHT22;4375;52.486;13.424;2022-10-22T13:39:18;17.60;99.90
8676;DHT22;4375;52.486;13.424;2022-10-22T13:41:44;17.50;99.90
8676;DHT22;4375;52.486;13.424;2022-10-22T13:44:10;17.50;99.90
8676;DHT22;4375;52.486;13.424;2022-10-22T13:46:36;17.50;99.90
8676;DHT22;4375;52.486;13.424;2022-10-22T13:49:19;17.50;99.90
8676;DHT22;4375;52.486;13.424;2022-10-22T13:51:45;17.40;99.90
8676;DHT22;4375;52.486;13.424;2022-10-22T13:54:22;17.40;99.90
8676;DHT22;4375;52.486;13.424;2022-10-22T13:56:48;17.30;99.90
8676;DHT22;4375;52.486;13.424;2022-10-22T13:59:14;17.30;99.90
8676;DHT22;4375;52.486;13.424;2022-10-22T14:01:40;17.30;99.90
8676;DHT22;4375;52.486;13.424;2022-10-22T14:04:09;17.30;99.90
8676;DHT22;4375;52.486;13.424;2022-10-22T14:06:37;17.20;99.90
8676;DHT22;4375;52.486;13.424;2022-10-22T14:09:11;17.20;99.90
8676;DHT22;4375;52.486;13.424;2022-10-22T14:11:38;17.20;99.90
8676;DHT22;4375;52.486;13.424;2022-10-22T14:14:03;17.20;99.90
8676;DHT22;4375;52.486;13.424;2022-10-22T14:16:33;17.10;99.90
8676;DHT22;4375;52.486;13.424;2022-10-22T14:19:00;17.10;99.90
8676;DHT22;4375;52.486;13.424;2022-10-22T14:21:29;17.10;99.90
8676;DHT22;4375;52.486;13.424;2022-10-22T14:23:57;17.20;99.90
8676;DHT22;4375;52.486;13.424;2022-10-22T14:26:29;17.20;99.90
8676;DHT22;4375;52.486;13.424;2022-10-22T14:28:58;17.20;99.90
8676;DHT22;4375;52.486;13.424;2022-10-22T14:31:23;17.20;99.90
8676;DHT22;4375;52.486;13.424;2022-10-22T14:33:49;17.30;99.90
8676;DHT22;4375;52.486;13.424;2022-10-22T14:36:16;17.20;99.90
8676;DHT22;4375;52.486;13.424;2022-10-22T14:38:43;17.20;99.90
8676;DHT22;4375;52.486;13.424;2022-10-22T14:41:23;17.20;99.90
8676;DHT22;4375;52.486;13.424;2022-10-22T14:43:50;17.20;99.90
8676;DHT22;4375;52.486;13.424;2022-10-22T14:46:18;17.30;99.90
8676;DHT22;4375;52.486;13.424;2022-10-22T14:48:47;17.20;99.90
8676;DHT22;4375;52.486;13.424;2022-10-22T14:51:15;17.10;99.90
8676;DHT22;4375;52.486;13.424;2022-10-22T14:53:41;17.10;99.90
8676;DHT22;4375;52.486;13.424;2022-10-22T14:56:10;17.00;99.90
8676;DHT22;4375;52.486;13.424;2022-10-22T14:58:36;16.90;99.90
8676;DHT22;4375;52.486;13.424;2022-10-22T15:01:03;16.90;99.90
8676;DHT22;4375;52.486;13.424;2022-10-22T15:03:28;16.90;99.90
8676;DHT22;4375;52.486;13.424;2022-10-22T15:05:55;16.80;99.90
8676;DHT22;4375;52.486;13.424;2022-10-22T15:08:21;16.80;99.90
8676;DHT22;4375;52.486;13.424;2022-10-22T15:11:15;16.80;99.90
8676;DHT22;4375;52.486;13.424;2022-10-22T15:13:41;16.90;99.90
8676;DHT22;4375;52.486;13.424;2022-10-22T15:16:08;16.80;99.90
8676;DHT22;4375;52.486;13.424;2022-10-22T15:18:34;16.80;99.90
8676;DHT22;4375;52.486;13.424;2022-10-22T15:21:03;16.80;99.90
8676;DHT22;4375;52.486;13.424;2022-10-22T15:23:29;16.70;99.90
8676;DHT22;4375;52.486;13.424;2022-10-22T15:25:56;16.70;99.90
8676;DHT22;4375;52.486;13.424;2022-10-22T15:28:22;16.60;99.90
8676;DHT22;4375;52.486;13.424;2022-10-22T15:30:57;16.60;99.90
8676;DHT22;4375;52.486;13.424;2022-10-22T15:33:23;16.50;99.90
8676;DHT22;4375;52.486;13.424;2022-10-22T15:35:49;16.50;99.90
8676;DHT22;4375;52.486;13.424;2022-10-22T15:38:14;16.40;99.90
8676;DHT22;4375;52.486;13.424;2022-10-22T15:40:40;16.30;99.90
8676;DHT22;4375;52.486;13.424;2022-10-22T15:43:05;16.30;99.90
8676;DHT22;4375;52.486;13.424;2022-10-22T15:45:31;16.20;99.90
8676;DHT22;4375;52.486;13.424;2022-10-22T15:47:56;16.20;99.90
8676;DHT22;4375;52.486;13.424;2022-10-22T15:50:23;16.10;99.90
8676;DHT22;4375;52.486;13.424;2022-10-22T15:52:48;16.10;99.90
8676;DHT22;4375;52.486;13.424;2022-10-22T15:55:14;16.00;99.90
8676;DHT22;4375;52.486;13.424;2022-10-22T15:57:39;15.90;99.90
8676;DHT22;4375;52.486;13.424;2022-10-22T16:00:06;15.90;99.90
8676;DHT22;4375;52.486;13.424;2022-10-22T16:02:32;15.80;99.90
8676;DHT22;4375;52.486;13.424;2022-10-22T16:04:57;15.80;99.90
8676;DHT22;4375;52.486;13.424;2022-10-22T16:07:24;15.70;99.90
8676;DHT22;4375;52.486;13.424;2022-10-22T16:09:50;15.60;99.90
8676;DHT22;4375;52.486;13.424;2022-10-22T16:12:19;15.60;99.90
8676;DHT22;4375;52.486;13.424;2022-10-22T16:14:44;15.50;99.90
8676;DHT22;4375;52.486;13.424;2022-10-22T16:17:10;15.50;99.90
8676;DHT22;4375;52.486;13.424;2022-10-22T16:19:35;15.40;99.90
8676;DHT22;4375;52.486;13.424;2022-10-22T16:22:01;15.40;99.90
8676;DHT22;4375;52.486;13.424;2022-10-22T16:24:27;15.40;99.90
8676;DHT22;4375;52.486;13.424;2022-10-22T16:26:53;15.30;99.90
8676;DHT22;4375;52.486;13.424;2022-10-22T16:29:19;15.30;99.90
8676;DHT22;4375;52.486;13.424;2022-10-22T16:31:45;15.20;99.90
8676;DHT22;4375;52.486;13.424;2022-10-22T16:34:11;15.20;99.90
8676;DHT22;4375;52.486;13.424;2022-10-22T16:36:37;15.20;99.90
8676;DHT22;4375;52.486;13.424;2022-10-22T16:39:04;15.10;99.90
8676;DHT22;4375;52.486;13.424;2022-10-22T16:41:30;15.10;99.90
8676;DHT22;4375;52.486;13.424;2022-10-22T16:44:00;15.10;99.90
8676;DHT22;4375;52.486;13.424;2022-10-22T16:46:28;15.10;99.90
8676;DHT22;4375;52.486;13.424;2022-10-22T16:48:53;15.10;99.90
8676;DHT22;4375;52.486;13.424;2022-10-22T16:51:22;15.00;99.90
8676;DHT22;4375;52.486;13.424;2022-10-22T16:53:50;15.00;99.90
8676;DHT22;4375;52.486;13.424;2022-10-22T16:56:17;15.00;99.90
8676;DHT22;4375;52.486;13.424;2022-10-22T16:58:57;15.00;99.90
8676;DHT22;4375;52.486;13.424;2022-10-22T17:01:25;15.00;99.90
8676;DHT22;4375;52.486;13.424;2022-10-22T17:03:57;14.90;99.90
8676;DHT22;4375;52.486;13.424;2022-10-22T17:06:24;14.90;99.90
8676;DHT22;4375;52.486;13.424;2022-10-22T17:08:49;14.90;99.90
8676;DHT22;4375;52.486;13.424;2022-10-22T17:11:18;14.90;99.90
8676;DHT22;4375;52.486;13.424;2022-10-22T17:13:46;14.90;99.90
8676;DHT22;4375;52.486;13.424;2022-10-22T17:16:14;14.90;99.90
8676;DHT22;4375;52.486;13.424;2022-10-22T17:18:41;14.90;99.90
8676;DHT22;4375;52.486;13.424;2022-10-22T17:21:08;14.90;99.90
8676;DHT22;4375;52.486;13.424;2022-10-22T17:23:34;14.80;99.90
8676;DHT22;4375;52.486;13.424;2022-10-22T17:26:02;14.80;99.90
8676;DHT22;4375;52.486;13.424;2022-10-22T17:28:31;14.80;99.90
8676;DHT22;4375;52.486;13.424;2022-10-22T17:33:27;14.80;99.90
8676;DHT22;4375;52.486;13.424;2022-10-22T17:35:52;14.80;99.90
8676;DHT22;4375;52.486;13.424;2022-10-22T17:38:18;14.80;99.90
8676;DHT22;4375;52.486;13.424;2022-10-22T17:40:44;14.80;99.90
8676;DHT22;4375;52.486;13.424;2022-10-22T17:43:09;14.80;99.90
8676;DHT22;4375;52.486;13.424;2022-10-22T17:45:35;14.70;99.90
8676;DHT22;4375;52.486;13.424;2022-10-22T17:48:01;14.70;99.90
8676;DHT22;4375;52.486;13.424;2022-10-22T17:50:26;14.70;99.90
8676;DHT22;4375;52.486;13.424;2022-10-22T17:52:52;14.70;99.90
8676;DHT22;4375;52.486;13.424;2022-10-22T17:55:17;14.70;99.90
8676;DHT22;4375;52.486;13.424;2022-10-22T17:57:43;14.70;99.90